createdAt,value
2022-11-12T00:01:51.531Z,12.85
2022-11-12T00:05:11.683Z,12.86
2022-11-12T00:08:31.544Z,12.83
2022-11-12T00:11:51.477Z,12.81
2022-11-12T00:15:11.318Z,12.82
2022-11-12T00:18:31.524Z,12.78
2022-11-12T00:21:51.516Z,12.77
2022-11-12T00:25:11.704Z,12.79
2022-11-12T00:28:37.236Z,12.78
2022-11-12T00:31:58.490Z,12.76
2022-11-12T00:35:18.378Z,12.73
2022-11-12T00:38:38.245Z,12.71
2022-11-12T00:41:58.000Z,12.72
2022-11-12T00:45:18.370Z,12.74
2022-11-12T00:48:38.368Z,12.72
2022-11-12T00:51:58.534Z,12.78
2022-11-12T00:55:18.369Z,12.78
2022-11-12T00:58:38.197Z,12.79
2022-11-12T01:01:57.978Z,12.83
2022-11-12T01:05:18.371Z,12.83
2022-11-12T01:08:38.252Z,12.80
2022-11-12T01:11:58.254Z,12.79
2022-11-12T01:15:18.156Z,12.72
2022-11-12T01:18:38.276Z,12.66
2022-11-12T01:21:58.568Z,12.69
2022-11-12T01:25:18.535Z,12.70
2022-11-12T01:28:38.394Z,12.65
2022-11-12T01:31:58.383Z,12.56
2022-11-12T01:35:18.173Z,12.57
2022-11-12T01:38:38.520Z,12.59
2022-11-12T01:41:58.487Z,12.61
2022-11-12T01:45:18.770Z,12.59
2022-11-12T01:48:40.220Z,12.57
2022-11-12T01:52:03.031Z,12.57
2022-11-12T01:55:23.349Z,12.55
2022-11-12T01:58:43.548Z,12.52
2022-11-12T02:02:03.449Z,12.47
2022-11-12T02:05:23.651Z,12.46
2022-11-12T02:08:43.828Z,12.44
2022-11-12T02:12:04.034Z,12.41
2022-11-12T02:15:24.155Z,12.36
2022-11-12T02:18:44.153Z,12.36
2022-11-12T02:22:04.050Z,12.32
2022-11-12T02:25:23.924Z,12.26
2022-11-12T02:28:43.638Z,12.18
2022-11-12T02:32:03.500Z,12.17
2022-11-12T02:35:23.413Z,12.14
2022-11-12T02:38:43.504Z,12.07
2022-11-12T02:42:03.298Z,12.04
2022-11-12T02:45:23.426Z,12.06
2022-11-12T02:48:44.062Z,12.02
2022-11-12T02:52:05.089Z,11.94
2022-11-12T02:55:25.113Z,11.85
2022-11-12T02:58:44.896Z,11.65
2022-11-12T03:02:04.658Z,11.56
2022-11-12T03:05:24.913Z,11.51
2022-11-12T03:08:44.774Z,11.45
2022-11-12T03:12:05.101Z,11.41
2022-11-12T03:15:25.086Z,11.43
2022-11-12T03:18:44.768Z,11.39
2022-11-12T03:22:04.704Z,11.32
2022-11-12T03:25:25.375Z,11.24
2022-11-12T03:28:45.324Z,11.16
2022-11-12T03:32:05.324Z,11.08
2022-11-12T03:35:26.782Z,10.99
2022-11-12T03:38:46.947Z,10.91
2022-11-12T03:42:06.833Z,10.83
2022-11-12T03:45:27.478Z,10.75
2022-11-12T03:48:50.434Z,10.70
2022-11-12T03:52:10.616Z,10.70
2022-11-12T03:55:30.547Z,10.69
2022-11-12T03:58:50.554Z,10.69
2022-11-12T04:02:14.485Z,10.67
2022-11-12T04:05:53.424Z,10.70
2022-11-12T04:09:13.571Z,10.65
2022-11-12T04:12:52.361Z,10.58
2022-11-12T04:16:32.907Z,10.56
2022-11-12T04:20:11.737Z,10.57
2022-11-12T04:23:31.831Z,10.61
2022-11-12T04:26:51.751Z,10.65
2022-11-12T04:30:19.429Z,10.73
2022-11-12T04:33:39.505Z,10.77
2022-11-12T04:36:59.440Z,10.79
2022-11-12T04:40:38.492Z,10.71
2022-11-12T04:44:17.374Z,10.65
2022-11-12T04:47:38.678Z,10.58
2022-11-12T04:51:03.060Z,10.62
2022-11-12T04:54:22.963Z,10.65
2022-11-12T04:57:43.337Z,10.62
2022-11-12T05:01:03.886Z,10.60
2022-11-12T05:04:27.608Z,10.61
2022-11-12T05:07:47.742Z,10.58
2022-11-12T05:11:12.659Z,10.54
2022-11-12T05:14:33.168Z,10.51
2022-11-12T05:17:53.171Z,10.44
2022-11-12T05:21:31.780Z,10.35
2022-11-12T05:24:52.122Z,10.30
2022-11-12T05:28:11.892Z,10.21
2022-11-12T05:31:34.004Z,10.21
2022-11-12T05:34:54.109Z,10.16
2022-11-12T05:38:14.096Z,10.07
2022-11-12T05:41:51.362Z,10.10
2022-11-12T05:45:14.234Z,10.14
2022-11-12T05:48:34.439Z,10.18
2022-11-12T05:51:54.285Z,10.23
2022-11-12T05:55:14.089Z,10.22
2022-11-12T05:58:34.043Z,10.21
2022-11-12T06:01:54.936Z,10.22
2022-11-12T06:05:15.036Z,10.20
2022-11-12T06:08:34.843Z,10.29
2022-11-12T06:11:54.773Z,10.33
2022-11-12T06:15:14.621Z,10.34
2022-11-12T06:18:34.821Z,10.34
2022-11-12T06:21:54.875Z,10.29
2022-11-12T06:25:15.435Z,10.24
2022-11-12T06:28:35.473Z,10.27
2022-11-12T06:31:55.913Z,10.29
2022-11-12T06:35:16.120Z,10.26
2022-11-12T06:38:36.740Z,10.28
2022-11-12T06:41:56.803Z,10.27
2022-11-12T06:45:16.578Z,10.28
2022-11-12T06:48:36.383Z,10.17
2022-11-12T06:51:56.412Z,10.06
2022-11-12T06:55:16.447Z,9.98
2022-11-12T06:58:36.867Z,9.90
2022-11-12T07:01:57.054Z,9.87
2022-11-12T07:05:17.352Z,9.83
2022-11-12T07:08:37.549Z,9.75
2022-11-12T07:11:58.496Z,9.75
2022-11-12T07:15:19.058Z,9.70
2022-11-12T07:18:39.056Z,9.68
2022-11-12T07:21:59.330Z,9.61
2022-11-12T07:25:19.648Z,9.60
2022-11-12T07:28:39.477Z,9.57
2022-11-12T07:31:59.628Z,9.52
2022-11-12T07:35:19.578Z,9.44
2022-11-12T07:38:39.979Z,9.50
2022-11-12T07:41:59.919Z,9.45
2022-11-12T07:45:19.837Z,9.48
2022-11-12T07:48:39.849Z,9.61
2022-11-12T07:52:00.135Z,9.66
2022-11-12T07:55:20.511Z,9.62
2022-11-12T07:58:40.428Z,9.56
2022-11-12T08:02:00.344Z,9.52
2022-11-12T08:05:21.475Z,9.51
2022-11-12T08:08:41.922Z,9.53
2022-11-12T08:12:02.363Z,9.51
2022-11-12T08:15:22.085Z,9.45
2022-11-12T08:18:42.376Z,9.41
2022-11-12T08:22:02.285Z,9.37
2022-11-12T08:25:22.504Z,9.38
2022-11-12T08:28:42.598Z,9.44
2022-11-12T08:32:02.415Z,9.51
2022-11-12T08:35:22.276Z,9.58
2022-11-12T08:38:42.432Z,9.65
2022-11-12T08:42:02.626Z,9.76
2022-11-12T08:45:22.577Z,9.79
2022-11-12T08:48:42.408Z,9.88
2022-11-12T08:52:02.391Z,9.91
2022-11-12T08:55:22.541Z,9.89
2022-11-12T08:58:42.669Z,9.87
2022-11-12T09:02:05.153Z,9.87
2022-11-12T09:05:25.013Z,9.90
2022-11-12T09:08:44.768Z,9.86
2022-11-12T09:12:13.638Z,9.79
2022-11-12T09:15:38.415Z,9.75
2022-11-12T09:18:59.023Z,9.74
2022-11-12T09:22:18.995Z,9.67
2022-11-12T09:25:39.199Z,9.71
2022-11-12T09:28:59.092Z,9.65
2022-11-12T09:32:19.208Z,9.63
2022-11-12T09:35:39.301Z,9.70
2022-11-12T09:38:59.269Z,9.86
2022-11-12T09:42:20.339Z,9.94
2022-11-12T09:45:41.834Z,9.93
2022-11-12T09:49:20.103Z,9.90
2022-11-12T09:52:40.374Z,9.84
2022-11-12T09:56:00.562Z,9.95
2022-11-12T09:59:21.197Z,10.05
2022-11-12T10:03:03.489Z,10.03
2022-11-12T10:06:24.711Z,9.99
2022-11-12T10:09:48.282Z,10.02
2022-11-12T10:13:08.411Z,10.04
2022-11-12T10:16:44.782Z,10.20
2022-11-12T10:20:24.226Z,10.25
2022-11-12T10:23:47.829Z,10.19
2022-11-12T10:27:17.820Z,10.07
2022-11-12T10:30:37.768Z,10.03
2022-11-12T10:34:05.691Z,10.09
2022-11-12T10:37:40.771Z,10.07
2022-11-12T10:41:00.978Z,10.11
2022-11-12T10:44:21.744Z,10.05
2022-11-12T10:47:44.556Z,10.18
2022-11-12T10:51:05.116Z,10.45
2022-11-12T10:54:36.748Z,10.63
2022-11-12T10:58:11.962Z,10.76
2022-11-12T11:01:35.534Z,10.80
2022-11-12T11:04:56.371Z,10.77
2022-11-12T11:08:16.342Z,10.83
2022-11-12T11:11:36.097Z,10.94
2022-11-12T11:15:11.580Z,10.92
2022-11-12T11:18:35.791Z,10.92
2022-11-12T11:22:05.027Z,10.74
2022-11-12T11:25:28.521Z,10.87
2022-11-12T11:29:02.844Z,10.93
2022-11-12T11:32:34.583Z,10.65
2022-11-12T11:35:57.178Z,10.53
2022-11-12T11:39:46.694Z,10.57
2022-11-12T11:43:13.067Z,10.67
2022-11-12T11:46:32.892Z,10.80
2022-11-12T11:49:52.812Z,10.80
2022-11-12T11:53:20.256Z,10.68
2022-11-12T11:56:44.215Z,10.46
2022-11-12T12:00:04.645Z,10.38
2022-11-12T12:03:36.374Z,10.51
2022-11-12T12:07:02.791Z,10.51
2022-11-12T12:11:07.010Z,10.49
2022-11-12T12:14:27.762Z,10.45
2022-11-12T12:17:50.687Z,10.46
2022-11-12T12:21:15.829Z,10.45
2022-11-12T12:24:37.650Z,10.50
2022-11-12T12:28:02.425Z,10.80
2022-11-12T12:31:29.915Z,11.13
2022-11-12T12:34:52.088Z,11.14
2022-11-12T12:38:32.016Z,11.51
2022-11-12T12:42:00.724Z,12.03
2022-11-12T12:45:29.613Z,12.02
2022-11-12T12:48:54.248Z,11.97
2022-11-12T12:52:15.325Z,11.98
2022-11-12T12:55:38.221Z,13.05
2022-11-12T12:58:58.288Z,15.19
2022-11-12T13:02:22.636Z,15.84
2022-11-12T13:05:42.931Z,16.49
2022-11-12T13:09:06.171Z,14.80
2022-11-12T13:12:49.525Z,13.49
2022-11-12T13:16:09.667Z,12.82
2022-11-12T13:19:30.610Z,12.38
2022-11-12T13:22:51.672Z,12.22
2022-11-12T13:26:30.643Z,11.94
2022-11-12T13:29:51.016Z,11.86
2022-11-12T13:33:18.955Z,11.73
2022-11-12T13:36:38.785Z,11.63
2022-11-12T13:40:02.396Z,11.55
2022-11-12T13:43:31.336Z,11.57
2022-11-12T13:46:51.767Z,11.65
2022-11-12T13:50:19.514Z,11.70
2022-11-12T13:53:40.378Z,11.75
2022-11-12T13:57:16.735Z,12.35
2022-11-12T14:00:36.540Z,15.09
2022-11-12T14:03:57.044Z,16.40
2022-11-12T14:07:32.423Z,15.95
2022-11-12T14:11:11.024Z,13.77
2022-11-12T14:14:40.141Z,12.97
2022-11-12T14:18:18.853Z,13.80
2022-11-12T14:21:38.898Z,13.62
2022-11-12T14:24:59.853Z,15.14
2022-11-12T14:28:30.280Z,15.81
2022-11-12T14:31:59.581Z,15.59
2022-11-12T14:35:20.788Z,15.54
2022-11-12T14:38:42.212Z,15.61
2022-11-12T14:42:02.920Z,15.36
2022-11-12T14:45:23.503Z,15.57
2022-11-12T14:48:47.990Z,15.41
2022-11-12T14:52:08.527Z,15.29
2022-11-12T14:55:33.011Z,15.05
2022-11-12T14:58:53.016Z,15.32
2022-11-12T15:02:31.604Z,15.39
2022-11-12T15:05:54.089Z,15.40
2022-11-12T15:09:21.002Z,15.00
2022-11-12T15:12:41.605Z,14.82
2022-11-12T15:16:04.688Z,14.68
2022-11-12T15:19:27.947Z,14.52
2022-11-12T15:22:51.747Z,14.41
2022-11-12T15:26:14.317Z,14.32
2022-11-12T15:29:34.969Z,14.21
2022-11-12T15:33:08.176Z,14.07
2022-11-12T15:36:28.014Z,13.82
2022-11-12T15:39:48.591Z,13.69
2022-11-12T15:43:22.392Z,13.36
2022-11-12T15:46:42.285Z,12.84
2022-11-12T15:50:02.142Z,12.47
2022-11-12T15:53:22.819Z,11.91
2022-11-12T15:56:43.369Z,11.43
2022-11-12T16:00:08.485Z,10.88
2022-11-12T16:03:29.185Z,10.48
2022-11-12T16:06:50.304Z,10.21
2022-11-12T16:10:14.413Z,10.06
2022-11-12T16:13:35.027Z,9.90
2022-11-12T16:16:55.570Z,9.74
2022-11-12T16:20:17.049Z,9.61
2022-11-12T16:23:37.460Z,9.53
2022-11-12T16:26:57.669Z,9.48
2022-11-12T16:30:19.117Z,9.41
2022-11-12T16:33:39.223Z,9.38
2022-11-12T16:36:59.073Z,9.34
2022-11-12T16:40:20.007Z,9.27
2022-11-12T16:43:40.440Z,9.22
2022-11-12T16:47:01.918Z,9.15
2022-11-12T16:50:23.179Z,9.05
2022-11-12T16:53:43.560Z,8.95
2022-11-12T16:57:03.849Z,8.93
2022-11-12T17:00:24.128Z,8.87
2022-11-12T17:03:43.886Z,8.83
2022-11-12T17:07:05.167Z,8.82
2022-11-12T17:10:25.776Z,8.89
2022-11-12T17:13:45.936Z,8.95
2022-11-12T17:17:05.832Z,8.96
2022-11-12T17:20:25.906Z,8.96
2022-11-12T17:23:45.975Z,8.98
2022-11-12T17:27:05.776Z,8.96
2022-11-12T17:30:25.778Z,8.98
2022-11-12T17:33:47.298Z,8.99
2022-11-12T17:37:07.825Z,8.95
2022-11-12T17:40:27.900Z,8.92
2022-11-12T17:43:47.871Z,8.93
2022-11-12T17:47:07.772Z,8.99
2022-11-12T17:50:27.776Z,9.01
2022-11-12T17:53:48.168Z,9.02
2022-11-12T17:57:08.273Z,9.01
2022-11-12T18:00:33.828Z,8.97
2022-11-12T18:03:54.684Z,8.93
2022-11-12T18:07:14.945Z,8.89
2022-11-12T18:10:35.991Z,8.90
2022-11-12T18:13:56.586Z,8.88
2022-11-12T18:17:16.628Z,8.91
2022-11-12T18:20:38.052Z,8.92
2022-11-12T18:23:58.031Z,8.98
2022-11-12T18:27:17.751Z,9.03
2022-11-12T18:30:37.663Z,9.05
2022-11-12T18:33:57.743Z,9.04
2022-11-12T18:37:17.675Z,9.02
2022-11-12T18:40:38.144Z,9.00
2022-11-12T18:43:59.160Z,8.98
2022-11-12T18:47:19.379Z,9.00
2022-11-12T18:50:39.209Z,9.02
2022-11-12T18:53:59.114Z,9.08
2022-11-12T18:57:19.126Z,9.11
2022-11-12T19:00:38.893Z,9.10
2022-11-12T19:03:58.540Z,9.04
2022-11-12T19:07:18.734Z,9.03
2022-11-12T19:10:39.137Z,9.07
2022-11-12T19:13:59.396Z,9.11
2022-11-12T19:17:20.136Z,9.15
2022-11-12T19:21:16.199Z,9.13
2022-11-12T19:24:36.410Z,9.08
2022-11-12T19:27:56.246Z,9.01
2022-11-12T19:31:18.123Z,8.90
2022-11-12T19:34:38.797Z,8.82
2022-11-12T19:37:59.305Z,8.78
2022-11-12T19:41:20.189Z,8.73
2022-11-12T19:44:40.289Z,8.68
2022-11-12T19:48:01.259Z,8.67
2022-11-12T19:51:21.573Z,8.67
2022-11-12T19:54:41.407Z,8.67
2022-11-12T19:58:01.382Z,8.61
2022-11-12T20:01:21.720Z,8.55
2022-11-12T20:04:41.568Z,8.51
2022-11-12T20:08:01.289Z,8.52
2022-11-12T20:11:21.352Z,8.65
2022-11-12T20:14:41.839Z,8.72
2022-11-12T20:18:02.353Z,8.73
2022-11-12T20:21:26.409Z,8.80
2022-11-12T20:24:46.943Z,8.79
2022-11-12T20:28:07.395Z,8.67
2022-11-12T20:31:27.549Z,8.62
2022-11-12T20:34:47.400Z,8.64
2022-11-12T20:38:07.387Z,8.58
2022-11-12T20:41:27.326Z,8.56
2022-11-12T20:44:47.376Z,8.74
2022-11-12T20:48:07.919Z,8.94
2022-11-12T20:51:32.925Z,8.96
2022-11-12T20:54:53.558Z,9.07
2022-11-12T20:58:13.611Z,9.08
2022-11-12T21:01:33.995Z,9.04
2022-11-12T21:04:54.817Z,9.00
2022-11-12T21:08:15.293Z,9.05
2022-11-12T21:11:35.406Z,9.06
2022-11-12T21:14:55.260Z,9.09
2022-11-12T21:18:15.018Z,9.04
2022-11-12T21:21:34.881Z,8.99
2022-11-12T21:24:54.687Z,8.96
2022-11-12T21:28:14.532Z,8.94
2022-11-12T21:31:34.378Z,8.91
2022-11-12T21:34:55.695Z,8.87
2022-11-12T21:38:15.547Z,8.77
2022-11-12T21:41:35.452Z,8.74
2022-11-12T21:44:55.229Z,8.78
2022-11-12T21:48:15.133Z,8.84
2022-11-12T21:51:34.864Z,8.79
2022-11-12T21:54:54.840Z,8.78
2022-11-12T21:58:14.772Z,8.80
2022-11-12T22:01:34.824Z,8.84
2022-11-12T22:04:54.925Z,8.85
2022-11-12T22:08:14.797Z,8.85
2022-11-12T22:11:34.809Z,8.83
2022-11-12T22:14:55.005Z,8.83
2022-11-12T22:18:14.739Z,8.80
2022-11-12T22:21:39.724Z,8.75
2022-11-12T22:25:01.179Z,8.72
2022-11-12T22:28:26.773Z,8.69
2022-11-12T22:31:47.105Z,8.65
2022-11-12T22:35:07.631Z,8.65
2022-11-12T22:38:31.764Z,8.65
2022-11-12T22:41:51.548Z,8.63
2022-11-12T22:45:12.039Z,8.64
2022-11-12T22:48:32.639Z,8.66
2022-11-12T22:51:52.615Z,8.68
2022-11-12T22:55:12.446Z,8.72
2022-11-12T22:58:52.686Z,8.73
2022-11-12T23:02:12.747Z,8.74
2022-11-12T23:05:32.598Z,8.76
2022-11-12T23:08:52.885Z,8.77
2022-11-12T23:12:12.654Z,8.78
2022-11-12T23:15:32.429Z,8.80
2022-11-12T23:18:52.712Z,8.82
2022-11-12T23:22:12.582Z,8.85
2022-11-12T23:25:32.866Z,8.88
2022-11-12T23:28:53.083Z,8.94
2022-11-12T23:32:12.811Z,8.99
2022-11-12T23:35:32.548Z,9.02
2022-11-12T23:38:52.741Z,9.07
2022-11-12T23:42:12.969Z,9.13
2022-11-12T23:45:36.065Z,9.15
2022-11-12T23:48:55.879Z,9.19
2022-11-12T23:52:16.510Z,9.20
2022-11-12T23:55:38.779Z,9.17
2022-11-12T23:58:59.007Z,9.18
